createdAt,value
2022-11-05T00:02:58.022Z,99451.00
2022-11-05T00:08:23.165Z,99450.01
2022-11-05T00:13:44.919Z,99446.10
2022-11-05T00:19:06.609Z,99443.76
2022-11-05T00:24:28.195Z,99436.77
2022-11-05T00:29:31.434Z,99430.19
2022-11-05T00:34:34.209Z,99417.85
2022-11-05T00:39:36.977Z,99413.70
2022-11-05T00:44:58.536Z,99415.39
2022-11-05T00:50:01.227Z,99413.98
2022-11-05T00:55:05.097Z,99406.97
2022-11-05T01:00:08.787Z,99401.27
2022-11-05T01:05:12.095Z,99399.95
2022-11-05T01:10:15.046Z,99394.68
2022-11-05T01:15:19.565Z,99389.96
2022-11-05T01:20:22.369Z,99390.40
2022-11-05T01:25:25.039Z,99383.59
2022-11-05T01:30:27.659Z,99382.41
2022-11-05T01:35:30.444Z,99374.46
2022-11-05T01:40:33.737Z,99367.38
2022-11-05T01:45:36.834Z,99363.44
2022-11-05T01:50:39.549Z,99362.23
2022-11-05T01:55:48.433Z,99356.17
2022-11-05T02:00:51.382Z,99352.83
2022-11-05T02:05:56.902Z,99347.02
2022-11-05T02:10:59.614Z,99354.66
2022-11-05T02:16:14.283Z,99361.66
2022-11-05T02:21:53.889Z,99363.77
2022-11-05T02:27:05.870Z,99362.94
2022-11-05T02:32:31.096Z,99357.92
2022-11-05T02:37:41.465Z,99359.70
2022-11-05T02:43:34.907Z,99360.54
2022-11-05T02:48:51.227Z,99358.98
2022-11-05T02:54:05.332Z,99359.20
2022-11-05T02:59:08.450Z,99362.61
2022-11-05T03:04:14.240Z,99367.27
2022-11-05T03:09:25.815Z,99376.20
2022-11-05T03:14:56.288Z,99374.98
2022-11-05T03:20:16.705Z,99381.68
2022-11-05T03:25:23.009Z,99386.54
2022-11-05T03:30:26.739Z,99378.81
2022-11-05T03:35:36.335Z,99378.23
2022-11-05T03:40:41.567Z,99372.53
2022-11-05T03:45:50.599Z,99360.57
2022-11-05T03:51:19.310Z,99357.11
2022-11-05T03:57:00.088Z,99360.73
2022-11-05T04:02:03.198Z,99369.73
2022-11-05T04:07:25.276Z,99366.58
2022-11-05T04:12:46.792Z,99372.50
2022-11-05T04:17:49.505Z,99374.98
2022-11-05T04:23:26.713Z,99367.98
2022-11-05T04:28:49.562Z,99365.42
2022-11-05T04:33:52.340Z,99370.58
2022-11-05T04:38:55.169Z,99376.42
2022-11-05T04:43:58.035Z,99376.72
2022-11-05T04:49:00.818Z,99371.75
2022-11-05T04:54:03.728Z,99384.74
2022-11-05T04:59:06.886Z,99391.98
2022-11-05T05:04:10.316Z,99399.40
2022-11-05T05:09:13.180Z,99399.29
2022-11-05T05:14:16.016Z,99405.51
2022-11-05T05:19:18.920Z,99417.77
2022-11-05T05:24:21.926Z,99428.10
2022-11-05T05:29:25.234Z,99444.57
2022-11-05T05:34:28.012Z,99447.26
2022-11-05T05:39:30.836Z,99450.66
2022-11-05T05:44:33.588Z,99446.14
2022-11-05T05:49:36.646Z,99445.44
2022-11-05T05:54:42.748Z,99445.92
2022-11-05T05:59:46.044Z,99444.89
2022-11-05T06:04:48.947Z,99456.11
2022-11-05T06:09:51.753Z,99470.93
2022-11-05T06:14:54.560Z,99473.04
2022-11-05T06:19:57.551Z,99483.02
2022-11-05T06:25:00.335Z,99486.46
2022-11-05T06:30:05.256Z,99476.48
2022-11-05T06:35:09.250Z,99476.49
2022-11-05T06:40:12.146Z,99480.32
2022-11-05T06:45:14.939Z,99490.94
2022-11-05T06:50:17.747Z,99505.06
2022-11-05T06:55:20.649Z,99510.39
2022-11-05T07:00:23.948Z,99512.63
2022-11-05T07:05:26.756Z,99520.16
2022-11-05T07:10:30.587Z,99516.77
2022-11-05T07:15:33.455Z,99519.36
2022-11-05T07:20:36.305Z,99532.20
2022-11-05T07:25:42.383Z,99540.63
2022-11-05T07:30:45.302Z,99550.16
2022-11-05T07:35:48.280Z,99552.98
2022-11-05T07:40:51.087Z,99555.92
2022-11-05T07:45:53.864Z,99565.44
2022-11-05T07:50:56.634Z,99568.81
2022-11-05T07:55:59.491Z,99570.55
2022-11-05T08:01:02.405Z,99580.58
2022-11-05T08:06:05.497Z,99591.82
2022-11-05T08:11:10.656Z,99592.97
2022-11-05T08:16:13.460Z,99600.17
2022-11-05T08:21:16.263Z,99601.91
2022-11-05T08:26:19.727Z,99607.04
2022-11-05T08:31:22.462Z,99611.52
2022-11-05T08:36:25.153Z,99617.54
2022-11-05T08:41:28.289Z,99625.83
2022-11-05T08:46:30.967Z,99629.95
2022-11-05T08:51:33.791Z,99633.27
2022-11-05T08:56:36.698Z,99640.16
2022-11-05T09:01:39.657Z,99641.56
2022-11-05T09:06:42.633Z,99648.76
2022-11-05T09:12:10.725Z,99654.15
2022-11-05T09:17:18.214Z,99658.00
2022-11-05T09:22:21.014Z,99661.39
2022-11-05T09:27:24.965Z,99664.47
2022-11-05T09:32:27.745Z,99667.92
2022-11-05T09:37:30.855Z,99681.27
2022-11-05T09:42:41.400Z,99691.88
2022-11-05T09:47:50.307Z,99686.84
2022-11-05T09:52:53.086Z,99690.93
2022-11-05T09:58:00.724Z,99698.17
2022-11-05T10:03:12.405Z,99704.05
2022-11-05T10:08:32.809Z,99706.83
2022-11-05T10:13:41.669Z,99716.72
2022-11-05T10:18:48.976Z,99722.61
2022-11-05T10:23:51.980Z,99718.59
2022-11-05T10:28:55.500Z,99726.50
2022-11-05T10:34:02.500Z,99738.34
2022-11-05T10:39:19.807Z,99747.33
2022-11-05T10:44:57.481Z,99752.63
2022-11-05T10:50:03.541Z,99758.23
2022-11-05T10:55:21.804Z,99766.42
2022-11-05T11:00:26.461Z,99778.05
2022-11-05T11:05:30.745Z,99781.52
2022-11-05T11:10:41.786Z,99793.22
2022-11-05T11:15:44.688Z,99799.27
2022-11-05T11:20:47.385Z,99803.65
2022-11-05T11:26:03.720Z,99803.86
2022-11-05T11:31:16.255Z,99807.96
2022-11-05T11:36:26.717Z,99813.75
2022-11-05T11:41:43.147Z,99822.14
2022-11-05T11:46:49.834Z,99820.49
2022-11-05T11:51:59.789Z,99819.23
2022-11-05T11:57:03.118Z,99819.63
2022-11-05T12:02:24.611Z,99814.21
2022-11-05T12:07:46.688Z,99831.73
2022-11-05T12:13:06.614Z,99835.41
2022-11-05T12:18:27.537Z,99829.88
2022-11-05T12:23:38.739Z,99824.77
2022-11-05T12:29:17.212Z,99827.85
2022-11-05T12:34:30.953Z,99832.52
2022-11-05T12:39:47.993Z,99840.29
2022-11-05T12:45:23.480Z,99847.15
2022-11-05T12:50:38.020Z,99851.86
2022-11-05T12:55:49.625Z,99857.98
2022-11-05T13:01:00.509Z,99868.48
2022-11-05T13:06:11.585Z,99876.44
2022-11-05T13:11:35.406Z,99886.30
2022-11-05T13:16:43.124Z,99885.62
2022-11-05T13:21:52.585Z,99886.55
2022-11-05T13:27:12.598Z,99894.86
2022-11-05T13:32:24.656Z,99902.91
2022-11-05T13:37:50.982Z,99912.70
2022-11-05T13:43:10.150Z,99920.38
2022-11-05T13:48:34.566Z,99933.65
2022-11-05T13:54:11.538Z,99940.92
2022-11-05T13:59:29.511Z,99953.02
2022-11-05T14:04:41.247Z,99957.17
2022-11-05T14:09:44.752Z,99961.02
2022-11-05T14:14:58.495Z,99971.32
2022-11-05T14:20:04.687Z,99981.63
2022-11-05T14:25:19.879Z,99988.13
2022-11-05T14:30:46.059Z,99992.31
2022-11-05T14:35:49.138Z,100003.29
2022-11-05T14:41:02.900Z,100011.09
2022-11-05T14:46:07.116Z,100014.13
2022-11-05T14:51:22.138Z,100017.61
2022-11-05T14:56:24.900Z,100015.46
2022-11-05T15:01:33.414Z,100016.19
2022-11-05T15:06:39.441Z,100012.58
2022-11-05T15:11:54.622Z,100014.34
2022-11-05T15:17:08.385Z,100022.11
2022-11-05T15:22:24.926Z,100021.98
2022-11-05T15:27:43.114Z,100027.45
2022-11-05T15:32:46.413Z,100029.20
2022-11-05T15:37:55.975Z,100035.81
2022-11-05T15:43:17.723Z,100038.99
2022-11-05T15:48:20.468Z,100035.55
2022-11-05T15:53:56.058Z,100043.73
2022-11-05T15:59:06.056Z,100044.22
2022-11-05T16:04:44.470Z,100048.84
2022-11-05T16:09:59.640Z,100055.58
2022-11-05T16:15:08.312Z,100067.29
2022-11-05T16:20:22.163Z,100077.19
2022-11-05T16:25:40.225Z,100096.89
2022-11-05T16:31:05.161Z,100106.69
2022-11-05T16:36:08.593Z,100115.29
2022-11-05T16:41:16.805Z,100124.00
2022-11-05T16:46:20.303Z,100123.06
2022-11-05T16:51:27.339Z,100126.83
2022-11-05T16:56:30.912Z,100132.05
2022-11-05T17:01:35.846Z,100138.36
2022-11-05T17:06:38.822Z,100145.89
2022-11-05T17:11:41.793Z,100154.42
2022-11-05T17:16:44.594Z,100158.59
2022-11-05T17:21:47.396Z,100159.22
2022-11-05T17:26:50.200Z,100163.61
2022-11-05T17:31:53.205Z,100172.91
2022-11-05T17:36:56.067Z,100176.80
2022-11-05T17:41:58.794Z,100186.04
2022-11-05T17:47:01.904Z,100198.59
2022-11-05T17:52:04.922Z,100202.85
2022-11-05T17:57:07.851Z,100208.29
2022-11-05T18:02:11.868Z,100220.86
2022-11-05T18:07:15.381Z,100224.52
2022-11-05T18:12:18.176Z,100228.55
2022-11-05T18:17:21.182Z,100228.02
2022-11-05T18:22:24.602Z,100228.01
2022-11-05T18:27:27.793Z,100236.86
2022-11-05T18:32:30.536Z,100242.30
2022-11-05T18:37:33.330Z,100247.21
2022-11-05T18:42:36.270Z,100248.73
2022-11-05T18:47:39.037Z,100254.56
2022-11-05T18:52:41.820Z,100261.77
2022-11-05T18:57:44.924Z,100258.42
2022-11-05T19:02:47.956Z,100264.98
2022-11-05T19:07:51.254Z,100268.22
2022-11-05T19:12:54.380Z,100276.65
2022-11-05T19:17:57.162Z,100273.29
2022-11-05T19:22:59.849Z,100278.43
2022-11-05T19:28:03.571Z,100279.55
2022-11-05T19:33:06.385Z,100281.30
2022-11-05T19:38:09.361Z,100286.96
2022-11-05T19:43:12.423Z,100288.77
2022-11-05T19:48:19.499Z,100294.39
2022-11-05T19:53:23.429Z,100292.08
2022-11-05T19:58:26.196Z,100296.73
2022-11-05T20:03:29.052Z,100296.02
2022-11-05T20:08:31.817Z,100301.86
2022-11-05T20:13:35.082Z,100307.20
2022-11-05T20:18:37.778Z,100311.67
2022-11-05T20:23:40.631Z,100316.89
2022-11-05T20:28:43.914Z,100312.41
2022-11-05T20:33:47.072Z,100316.57
2022-11-05T20:38:55.397Z,100317.09
2022-11-05T20:43:58.309Z,100319.72
2022-11-05T20:49:01.119Z,100320.23
2022-11-05T20:54:04.323Z,100320.06
2022-11-05T20:59:07.125Z,100323.34
2022-11-05T21:04:09.900Z,100326.00
2022-11-05T21:09:13.142Z,100330.23
2022-11-05T21:14:15.849Z,100331.52
2022-11-05T21:19:18.640Z,100340.19
2022-11-05T21:24:21.750Z,100346.06
2022-11-05T21:29:24.571Z,100344.30
2022-11-05T21:34:27.973Z,100347.80
2022-11-05T21:39:30.914Z,100351.08
2022-11-05T21:44:33.673Z,100349.94
2022-11-05T21:49:36.399Z,100347.27
2022-11-05T21:54:58.009Z,100353.15
2022-11-05T22:00:03.839Z,100354.77
2022-11-05T22:05:07.600Z,100356.58
2022-11-05T22:10:16.144Z,100363.06
2022-11-05T22:15:19.478Z,100362.10
2022-11-05T22:20:22.265Z,100363.71
2022-11-05T22:25:25.171Z,100367.38
2022-11-05T22:30:27.958Z,100366.45
2022-11-05T22:35:30.897Z,100376.90
2022-11-05T22:40:33.658Z,100384.55
2022-11-05T22:45:37.245Z,100383.19
2022-11-05T22:50:40.202Z,100391.04
2022-11-05T22:55:42.974Z,100395.25
2022-11-05T23:00:45.804Z,100396.55
2022-11-05T23:05:57.412Z,100396.48
2022-11-05T23:11:29.896Z,100399.51
2022-11-05T23:16:51.323Z,100400.50
2022-11-05T23:22:12.931Z,100400.05
2022-11-05T23:27:15.659Z,100402.70
2022-11-05T23:32:24.885Z,100407.45
2022-11-05T23:38:05.330Z,100408.15
2022-11-05T23:43:29.185Z,100408.48
2022-11-05T23:48:37.160Z,100413.00
2022-11-05T23:53:41.046Z,100411.11
2022-11-05T23:58:43.879Z,100415.95
